FRS119N EDFM-EDRY
Flight info
| Callsign | FRS119N |
|---|---|
| Flight time | 0h -14m |
| Altitude | 4000 |
| Route | DCT |
| Aircraft | C172/L-SFG/C |
Departure
| Time | 2026-05-08 19:46 |
|---|---|
| Airport | Mannheim-City Airport (EDFM) |
Arrival
| Time | 2026-05-08 19:32 |
|---|---|
| Airport | Speyer Airfield (EDRY) |
| Time | Latitude | Longitude | Altitude | Speed | Heading |
|---|---|---|---|---|---|
| 2026-05-08 19:32 | 49.47559 | 8.52083 | 319 ft | 0 kts | 184° |
| 2026-05-08 19:38 | 49.47553 | 8.52100 | 319 ft | 6 kts | 76° |
| 2026-05-08 19:38 | 49.47581 | 8.52131 | 319 ft | 6 kts | 27° |
| 2026-05-08 19:39 | 49.47546 | 8.52173 | 319 ft | 10 kts | 184° |
| 2026-05-08 19:39 | 49.47479 | 8.52165 | 319 ft | 9 kts | 186° |
| 2026-05-08 19:39 | 49.47421 | 8.52163 | 319 ft | 8 kts | 181° |
| 2026-05-08 19:39 | 49.47373 | 8.52157 | 319 ft | 6 kts | 185° |
| 2026-05-08 19:40 | 49.47332 | 8.52156 | 319 ft | 5 kts | 186° |
| 2026-05-08 19:40 | 49.47282 | 8.52153 | 319 ft | 11 kts | 185° |
| 2026-05-08 19:40 | 49.47217 | 8.52120 | 319 ft | 12 kts | 231° |
| 2026-05-08 19:40 | 49.47199 | 8.51976 | 319 ft | 16 kts | 271° |
| 2026-05-08 19:41 | 49.47203 | 8.51817 | 319 ft | 14 kts | 276° |
| 2026-05-08 19:41 | 49.47209 | 8.51676 | 319 ft | 12 kts | 267° |
| 2026-05-08 19:41 | 49.47215 | 8.51556 | 319 ft | 11 kts | 268° |
| 2026-05-08 19:41 | 49.47219 | 8.51453 | 319 ft | 9 kts | 273° |
| 2026-05-08 19:42 | 49.47221 | 8.51347 | 318 ft | 14 kts | 273° |
| 2026-05-08 19:42 | 49.47228 | 8.51168 | 318 ft | 17 kts | 272° |
| 2026-05-08 19:42 | 49.47234 | 8.51004 | 318 ft | 14 kts | 271° |
| 2026-05-08 19:42 | 49.47238 | 8.50866 | 318 ft | 12 kts | 274° |
| 2026-05-08 19:43 | 49.47246 | 8.50759 | 319 ft | 7 kts | 294° |
| 2026-05-08 19:43 | 49.47249 | 8.50749 | 319 ft | 0 kts | 295° |
| 2026-05-08 19:43 | 49.47253 | 8.50738 | 319 ft | 7 kts | 298° |
| 2026-05-08 19:44 | 49.47290 | 8.50670 | 318 ft | 7 kts | 18° |
| 2026-05-08 19:44 | 49.47296 | 8.50710 | 318 ft | 0 kts | 91° |
| 2026-05-08 19:44 | 49.47296 | 8.50734 | 318 ft | 16 kts | 88° |
| 2026-05-08 19:45 | 49.47280 | 8.51175 | 317 ft | 63 kts | 92° |
| 2026-05-08 19:45 | 49.47248 | 8.51902 | 439 ft | 72 kts | 98° |
| 2026-05-08 19:45 | 49.47039 | 8.52613 | 589 ft | 76 kts | 129° |
| 2026-05-08 19:45 | 49.46632 | 8.53128 | 723 ft | 77 kts | 149° |
| 2026-05-08 19:46 | 49.46089 | 8.53542 | 744 ft | 100 kts | 149° |
| 2026-05-08 19:46 | 49.45457 | 8.53966 | 979 ft | 99 kts | 165° |
| 2026-05-08 19:46 | 49.44065 | 8.53744 | 1383 ft | 106 kts | 199° |
| 2026-05-08 19:47 | 49.43358 | 8.53328 | 1534 ft | 111 kts | 199° |
| 2026-05-08 19:47 | 49.42615 | 8.52890 | 1645 ft | 118 kts | 196° |
| 2026-05-08 19:47 | 49.41847 | 8.52449 | 1786 ft | 119 kts | 198° |
| 2026-05-08 19:47 | 49.41114 | 8.51778 | 1881 ft | 125 kts | 216° |
| 2026-05-08 19:48 | 49.40449 | 8.50841 | 1877 ft | 133 kts | 221° |
| 2026-05-08 19:48 | 49.39777 | 8.49821 | 1849 ft | 138 kts | 223° |
| 2026-05-08 19:48 | 49.39022 | 8.48933 | 1866 ft | 135 kts | 207° |
| 2026-05-08 19:48 | 49.38153 | 8.48577 | 1894 ft | 130 kts | 181° |
| 2026-05-08 19:49 | 49.37244 | 8.48461 | 1875 ft | 130 kts | 178° |
| 2026-05-08 19:49 | 49.36337 | 8.48355 | 1865 ft | 130 kts | 181° |
| 2026-05-08 19:49 | 49.35443 | 8.48034 | 1846 ft | 135 kts | 195° |
| 2026-05-08 19:49 | 49.34560 | 8.47493 | 1788 ft | 135 kts | 193° |
| 2026-05-08 19:50 | 49.33697 | 8.47444 | 1937 ft | 111 kts | 151° |
| 2026-05-08 19:50 | 49.33223 | 8.48253 | 2057 ft | 101 kts | 104° |
| 2026-05-08 19:50 | 49.33206 | 8.49350 | 2092 ft | 107 kts | 83° |
| 2026-05-08 19:50 | 49.33447 | 8.50485 | 2024 ft | 112 kts | 65° |
| 2026-05-08 19:51 | 49.33874 | 8.51454 | 2041 ft | 111 kts | 48° |
| 2026-05-08 19:51 | 49.34445 | 8.52282 | 1914 ft | 116 kts | 51° |
| 2026-05-08 19:51 | 49.34811 | 8.53335 | 1839 ft | 110 kts | 78° |
| 2026-05-08 19:51 | 49.34698 | 8.54424 | 1839 ft | 107 kts | 126° |
| 2026-05-08 19:52 | 49.34020 | 8.54850 | 1832 ft | 112 kts | 179° |
| 2026-05-08 19:52 | 49.33310 | 8.54263 | 1648 ft | 118 kts | 222° |
| 2026-05-08 19:52 | 49.32927 | 8.53182 | 1468 ft | 119 kts | 269° |
| 2026-05-08 19:52 | 49.33029 | 8.51971 | 1319 ft | 116 kts | 270° |
| 2026-05-08 19:53 | 49.32793 | 8.50793 | 1236 ft | 111 kts | 241° |
| 2026-05-08 19:53 | 49.32289 | 8.49875 | 1196 ft | 118 kts | 225° |
| 2026-05-08 19:53 | 49.31651 | 8.49074 | 1144 ft | 116 kts | 205° |
| 2026-05-08 19:53 | 49.30919 | 8.48873 | 1236 ft | 112 kts | 175° |
| 2026-05-08 19:54 | 49.30150 | 8.49040 | 1155 ft | 106 kts | 164° |
| 2026-05-08 19:54 | 49.29485 | 8.49274 | 1124 ft | 90 kts | 169° |
| 2026-05-08 19:54 | 49.28902 | 8.49073 | 1018 ft | 90 kts | 221° |
| 2026-05-08 19:54 | 49.28553 | 8.48300 | 941 ft | 92 kts | 239° |
| 2026-05-08 19:55 | 49.28227 | 8.47451 | 859 ft | 92 kts | 255° |
| 2026-05-08 19:55 | 49.28289 | 8.46568 | 752 ft | 88 kts | 293° |
| 2026-05-08 19:55 | 49.28618 | 8.45902 | 633 ft | 75 kts | 341° |
| 2026-05-08 19:55 | 49.29103 | 8.45708 | 478 ft | 71 kts | 349° |
| 2026-05-08 19:56 | 49.29577 | 8.45537 | 348 ft | 68 kts | 345° |
| 2026-05-08 19:56 | 49.29975 | 8.45378 | 333 ft | 49 kts | 348° |
| 2026-05-08 19:56 | 49.30179 | 8.45292 | 330 ft | 8 kts | 344° |
| 2026-05-08 19:56 | 49.30294 | 8.45254 | 330 ft | 25 kts | 348° |
| 2026-05-08 19:57 | 49.30428 | 8.45205 | 330 ft | 13 kts | 6° |
| 2026-05-08 19:57 | 49.30474 | 8.45268 | 331 ft | 0 kts | 77° |
| 2026-05-08 19:57 | 49.30474 | 8.45270 | 331 ft | 2 kts | 85° |
| 2026-05-08 19:57 | 49.30452 | 8.45314 | 331 ft | 9 kts | 169° |
| 2026-05-08 19:58 | 49.30426 | 8.45376 | 331 ft | 7 kts | 158° |
| 2026-05-08 19:58 | 49.30416 | 8.45380 | 332 ft | 0 kts | 160° |
| 2026-05-08 19:58 | 49.30394 | 8.45416 | 332 ft | 10 kts | 129° |
| 2026-05-08 19:59 | 49.30332 | 8.45439 | 332 ft | 7 kts | 179° |
| 2026-05-08 19:59 | 49.30312 | 8.45439 | 332 ft | 0 kts | 222° |
| 2026-05-08 19:59 | 49.30309 | 8.45422 | 332 ft | 0 kts | 254° |